Time;durP1;ratioP1;P1;durP2;ratioP2;P2;SDS_P1;SDS_P2;PMS_P1;PMS_P2;Temp;Humidity;BMP_temperature;BMP_pressure;BME280_temperature;BME280_humidity;BME280_pressure;Samples;Min_cycle;Max_cycle;Signal;HPM_P1;HPM_P2
2022/09/02 00:01:02;;;;;;;8.50;5.57;;;;;;;;;;5037893;28;20378;-70
2022/09/02 00:03:29;;;;;;;8.05;5.63;;;;;;;;;;5057066;28;20100;-70
2022/09/02 00:05:56;;;;;;;10.15;5.70;;;;;;;;;;5056993;28;20021;-71
2022/09/02 00:08:22;;;;;;;9.32;5.32;;;;;;;;;;5056932;28;20032;-71
2022/09/02 00:10:48;;;;;;;9.93;6.30;;;;;;;;;;5056905;28;20100;-72
2022/09/02 00:13:15;;;;;;;10.52;6.38;;;;;;;;;;5057416;28;20017;-69
2022/09/02 00:15:42;;;;;;;10.30;6.22;;;;;;;;;;5056851;28;20017;-71
2022/09/02 00:18:11;;;;;;;8.95;6.32;;;;;;;;;;5056922;28;20027;-71
2022/09/02 00:20:38;;;;;;;12.30;6.75;;;;;;;;;;5056942;28;20351;-70
2022/09/02 00:23:04;;;;;;;11.75;7.35;;;;;;;;;;5056899;28;20515;-70
2022/09/02 00:25:31;;;;;;;12.68;7.20;;;;;;;;;;5056824;28;20012;-70
2022/09/02 00:27:57;;;;;;;11.57;7.10;;;;;;;;;;5056850;28;20108;-71
2022/09/02 00:30:23;;;;;;;10.48;7.25;;;;;;;;;;5056534;28;20025;-70
2022/09/02 00:32:49;;;;;;;9.85;7.30;;;;;;;;;;5056491;28;20056;-71
2022/09/02 00:35:15;;;;;;;11.82;7.28;;;;;;;;;;5056991;28;20091;-71
2022/09/02 00:37:41;;;;;;;11.05;6.70;;;;;;;;;;5056448;28;20083;-71
2022/09/02 00:40:07;;;;;;;11.10;6.38;;;;;;;;;;5056260;28;20219;-70
2022/09/02 00:42:34;;;;;;;11.10;6.80;;;;;;;;;;5056363;28;20025;-70
2022/09/02 00:45:02;;;;;;;9.63;6.80;;;;;;;;;;5056514;28;20028;-72
2022/09/02 00:47:29;;;;;;;14.70;7.88;;;;;;;;;;5056745;28;20021;-70
2022/09/02 00:49:57;;;;;;;10.02;7.22;;;;;;;;;;5056133;28;20021;-70
2022/09/02 00:52:39;;;;;;;14.82;7.57;;;;;;;;;;5056076;28;20059;-70
2022/09/02 00:55:05;;;;;;;11.25;6.78;;;;;;;;;;5056665;28;20051;-71
2022/09/02 00:57:33;;;;;;;11.27;7.03;;;;;;;;;;5055584;28;20573;-71
2022/09/02 01:00:08;;;;;;;13.75;7.75;;;;;;;;;;5055887;28;20477;-70
2022/09/02 01:02:36;;;;;;;10.38;6.72;;;;;;;;;;5037953;28;20405;-70
2022/09/02 01:05:03;;;;;;;9.77;6.35;;;;;;;;;;5056108;28;20470;-71
2022/09/02 01:07:33;;;;;;;10.73;7.68;;;;;;;;;;5055791;28;20040;-71
2022/09/02 01:09:59;;;;;;;10.23;7.28;;;;;;;;;;5055791;28;20025;-72
2022/09/02 01:12:26;;;;;;;12.75;8.52;;;;;;;;;;5055430;28;20025;-71
2022/09/02 01:14:52;;;;;;;12.15;7.65;;;;;;;;;;5055763;28;20029;-70
2022/09/02 01:17:19;;;;;;;11.30;7.10;;;;;;;;;;5055916;28;20068;-72
2022/09/02 01:19:48;;;;;;;9.40;6.88;;;;;;;;;;5055802;28;20021;-71
2022/09/02 01:22:24;;;;;;;11.45;7.35;;;;;;;;;;5055848;28;20032;-72
2022/09/02 01:24:50;;;;;;;11.40;7.00;;;;;;;;;;5055724;28;20470;-71
2022/09/02 01:27:17;;;;;;;12.05;6.90;;;;;;;;;;5055747;28;20029;-70
2022/09/02 01:29:44;;;;;;;10.02;6.53;;;;;;;;;;5055394;28;20048;-71
2022/09/02 01:32:10;;;;;;;11.18;6.88;;;;;;;;;;5055312;28;20033;-71
2022/09/02 01:34:36;;;;;;;10.07;6.40;;;;;;;;;;5055591;28;20381;-71
2022/09/02 01:37:02;;;;;;;9.23;6.10;;;;;;;;;;5055237;28;20061;-70
2022/09/02 01:39:28;;;;;;;11.40;7.10;;;;;;;;;;5037263;28;20025;-70
2022/09/02 01:41:54;;;;;;;12.98;8.55;;;;;;;;;;5055115;28;20029;-71
2022/09/02 01:44:21;;;;;;;12.88;8.60;;;;;;;;;;5055423;28;20017;-70
2022/09/02 01:46:47;;;;;;;12.68;7.70;;;;;;;;;;5037731;28;20074;-72
2022/09/02 01:49:13;;;;;;;13.88;8.35;;;;;;;;;;5055042;28;20029;-72
2022/09/02 01:51:39;;;;;;;10.68;8.35;;;;;;;;;;5055006;28;20548;-71
2022/09/02 01:54:05;;;;;;;12.00;8.48;;;;;;;;;;5054961;28;20481;-71
2022/09/02 01:56:31;;;;;;;13.40;8.90;;;;;;;;;;5054781;28;20052;-71
2022/09/02 01:58:57;;;;;;;12.88;9.32;;;;;;;;;;5055082;28;20108;-71
2022/09/02 02:01:23;;;;;;;16.20;10.02;;;;;;;;;;5054743;28;20028;-71
2022/09/02 02:03:50;;;;;;;14.98;9.30;;;;;;;;;;5036810;28;20021;-70
2022/09/02 02:06:17;;;;;;;15.90;9.27;;;;;;;;;;5036863;28;20025;-71
2022/09/02 02:08:43;;;;;;;12.60;10.07;;;;;;;;;;5054645;28;20612;-71
2022/09/02 02:11:10;;;;;;;13.55;9.18;;;;;;;;;;5054617;28;20025;-70
2022/09/02 02:13:36;;;;;;;12.85;9.07;;;;;;;;;;5036686;28;20025;-70
2022/09/02 02:16:02;;;;;;;13.77;9.27;;;;;;;;;;5054800;28;20595;-70
2022/09/02 02:18:28;;;;;;;15.82;9.98;;;;;;;;;;5054983;28;20021;-71
2022/09/02 02:20:55;;;;;;;13.95;9.30;;;;;;;;;;5054496;28;20032;-71
2022/09/02 02:23:23;;;;;;;14.02;8.90;;;;;;;;;;5054207;28;20017;-72
2022/09/02 02:25:49;;;;;;;14.43;9.48;;;;;;;;;;5054357;28;20091;-71
2022/09/02 02:28:15;;;;;;;14.35;9.85;;;;;;;;;;5054600;28;20029;-70
2022/09/02 02:30:41;;;;;;;14.48;9.73;;;;;;;;;;5054509;28;20025;-72
2022/09/02 02:33:07;;;;;;;16.80;10.98;;;;;;;;;;5054221;28;20043;-70
2022/09/02 02:35:33;;;;;;;19.65;13.13;;;;;;;;;;5054213;28;20528;-70
2022/09/02 02:37:59;;;;;;;23.17;14.15;;;;;;;;;;5054108;28;20025;-70
2022/09/02 02:40:25;;;;;;;23.52;14.98;;;;;;;;;;5054267;28;20036;-71
2022/09/02 02:42:52;;;;;;;20.63;13.68;;;;;;;;;;5054005;28;20568;-71
2022/09/02 02:45:18;;;;;;;27.67;14.93;;;;;;;;;;5054216;28;20021;-71
2022/09/02 02:47:47;;;;;;;23.63;14.98;;;;;;;;;;5054379;28;20509;-70
2022/09/02 02:50:14;;;;;;;19.92;14.43;;;;;;;;;;5036033;28;20033;-72
2022/09/02 02:52:40;;;;;;;19.83;13.93;;;;;;;;;;5054367;28;20048;-70
2022/09/02 02:55:07;;;;;;;21.70;14.13;;;;;;;;;;5035922;28;20112;-70
2022/09/02 02:57:34;;;;;;;22.92;15.80;;;;;;;;;;5053300;28;20048;-71
2022/09/02 03:00:08;;;;;;;27.25;16.05;;;;;;;;;;5053670;28;20401;-70
2022/09/02 03:02:34;;;;;;;28.23;17.25;;;;;;;;;;5053874;28;20021;-71
2022/09/02 03:05:00;;;;;;;24.70;16.88;;;;;;;;;;5035777;28;20392;-71
2022/09/02 03:07:26;;;;;;;26.17;16.00;;;;;;;;;;5053603;28;20087;-70
2022/09/02 03:09:52;;;;;;;25.10;16.70;;;;;;;;;;5053781;28;20032;-71
2022/09/02 03:12:19;;;;;;;32.88;17.27;;;;;;;;;;5053724;28;20495;-71
2022/09/02 03:14:45;;;;;;;28.55;17.33;;;;;;;;;;5053429;28;20100;-70
2022/09/02 03:17:11;;;;;;;27.48;18.27;;;;;;;;;;5053672;28;20108;-71
2022/09/02 03:19:37;;;;;;;28.38;18.60;;;;;;;;;;5053284;28;20025;-70
2022/09/02 03:22:04;;;;;;;24.85;17.15;;;;;;;;;;5053326;28;20017;-70
2022/09/02 03:24:30;;;;;;;25.58;17.63;;;;;;;;;;5053268;28;20040;-71
2022/09/02 03:26:56;;;;;;;27.33;17.08;;;;;;;;;;5053784;28;20024;-70
2022/09/02 03:29:22;;;;;;;27.95;18.58;;;;;;;;;;5053286;28;20029;-71
2022/09/02 03:31:48;;;;;;;27.52;18.92;;;;;;;;;;5053208;28;20028;-70
2022/09/02 03:34:14;;;;;;;29.92;18.77;;;;;;;;;;5053176;28;20039;-70
2022/09/02 03:36:43;;;;;;;25.48;18.33;;;;;;;;;;5053108;28;20021;-70
2022/09/02 03:39:09;;;;;;;30.23;18.45;;;;;;;;;;5035266;28;20025;-72
2022/09/02 03:41:36;;;;;;;27.88;18.63;;;;;;;;;;5053364;28;20043;-72
2022/09/02 03:44:02;;;;;;;28.88;19.02;;;;;;;;;;5053084;28;20021;-70
2022/09/02 03:46:28;;;;;;;26.48;17.98;;;;;;;;;;5035652;28;20024;-70
2022/09/02 03:48:54;;;;;;;30.10;18.98;;;;;;;;;;5053317;28;20033;-71
2022/09/02 03:51:22;;;;;;;29.80;19.17;;;;;;;;;;5053289;28;20025;-70
2022/09/02 03:53:48;;;;;;;24.73;18.05;;;;;;;;;;5053314;28;20044;-70
2022/09/02 03:56:15;;;;;;;25.58;18.25;;;;;;;;;;5053023;28;20582;-71
2022/09/02 03:58:42;;;;;;;27.70;17.63;;;;;;;;;;5052913;28;20064;-70
2022/09/02 04:01:12;;;;;;;31.27;19.30;;;;;;;;;;5053188;28;20013;-71
2022/09/02 04:03:38;;;;;;;28.58;18.52;;;;;;;;;;5053747;28;20021;-71
2022/09/02 04:06:05;;;;;;;26.05;17.75;;;;;;;;;;5034998;28;20036;-71
2022/09/02 04:08:31;;;;;;;31.67;19.23;;;;;;;;;;5035015;28;20477;-71
2022/09/02 04:10:57;;;;;;;27.48;19.38;;;;;;;;;;5052851;28;20123;-70
2022/09/02 04:13:23;;;;;;;27.38;19.52;;;;;;;;;;5053109;28;20027;-71
2022/09/02 04:15:49;;;;;;;25.23;18.13;;;;;;;;;;5052791;28;20481;-70
2022/09/02 04:18:16;;;;;;;27.90;19.23;;;;;;;;;;5052743;28;20029;-71
2022/09/02 04:20:43;;;;;;;24.02;17.75;;;;;;;;;;5053301;28;20033;-71
2022/09/02 04:23:09;;;;;;;26.38;18.52;;;;;;;;;;5034845;28;20025;-72
2022/09/02 04:25:39;;;;;;;28.85;19.77;;;;;;;;;;5052980;28;20424;-70
2022/09/02 04:28:05;;;;;;;26.33;18.23;;;;;;;;;;5052736;28;20025;-71
2022/09/02 04:30:31;;;;;;;28.92;18.95;;;;;;;;;;5052619;28;20454;-70
2022/09/02 04:32:57;;;;;;;25.55;18.65;;;;;;;;;;5052617;28;20029;-70
2022/09/02 04:35:23;;;;;;;26.73;18.98;;;;;;;;;;5052649;28;20029;-71
2022/09/02 04:37:49;;;;;;;26.40;18.73;;;;;;;;;;5034804;28;20465;-71
2022/09/02 04:40:15;;;;;;;30.25;20.35;;;;;;;;;;5052542;28;20054;-70
2022/09/02 04:42:41;;;;;;;27.08;18.98;;;;;;;;;;5053125;28;20378;-70
2022/09/02 04:45:07;;;;;;;32.28;20.27;;;;;;;;;;5052524;28;20020;-70
2022/09/02 04:47:33;;;;;;;30.67;19.88;;;;;;;;;;5056722;28;20432;-71
2022/09/02 04:50:00;;;;;;;35.85;21.75;;;;;;;;;;5056144;28;20031;-70
2022/09/02 04:52:26;;;;;;;28.00;19.48;;;;;;;;;;5056180;28;20025;-72
2022/09/02 04:54:52;;;;;;;30.42;21.50;;;;;;;;;;5056096;28;20099;-71
2022/09/02 04:57:18;;;;;;;27.52;19.33;;;;;;;;;;5057902;28;20053;-71
2022/09/02 04:59:45;;;;;;;26.23;18.88;;;;;;;;;;5055889;28;20025;-70
2022/09/02 05:02:11;;;;;;;28.08;19.38;;;;;;;;;;5055869;28;20481;-70
2022/09/02 05:04:37;;;;;;;31.25;20.67;;;;;;;;;;5056138;28;20404;-70
2022/09/02 05:07:03;;;;;;;30.27;20.63;;;;;;;;;;5055849;28;20029;-70
2022/09/02 05:09:30;;;;;;;30.27;21.75;;;;;;;;;;5056050;28;20029;-71
2022/09/02 05:11:56;;;;;;;30.00;20.83;;;;;;;;;;5055764;28;20490;-71
2022/09/02 05:14:23;;;;;;;29.33;20.40;;;;;;;;;;5055732;28;20017;-71
2022/09/02 05:16:52;;;;;;;32.17;22.15;;;;;;;;;;5055962;28;20521;-71
2022/09/02 05:19:19;;;;;;;30.25;20.73;;;;;;;;;;5055851;28;20071;-72
2022/09/02 05:21:45;;;;;;;31.13;20.67;;;;;;;;;;5055570;28;20025;-72
2022/09/02 05:24:12;;;;;;;35.05;22.55;;;;;;;;;;5055525;28;20385;-71
2022/09/02 05:26:39;;;;;;;31.27;22.00;;;;;;;;;;5055707;28;20025;-72
2022/09/02 05:29:08;;;;;;;31.10;21.45;;;;;;;;;;5055987;28;20021;-71
2022/09/02 05:31:35;;;;;;;34.47;21.45;;;;;;;;;;5056028;28;20025;-70
2022/09/02 05:34:01;;;;;;;35.22;21.92;;;;;;;;;;5055324;28;20389;-71
2022/09/02 05:36:27;;;;;;;35.80;23.17;;;;;;;;;;5055305;28;20395;-70
2022/09/02 05:38:53;;;;;;;36.95;23.02;;;;;;;;;;5055474;28;20092;-72
2022/09/02 05:41:23;;;;;;;35.80;22.85;;;;;;;;;;5055199;28;20103;-70
2022/09/02 05:43:50;;;;;;;42.00;24.63;;;;;;;;;;5055441;28;20489;-71
2022/09/02 05:46:17;;;;;;;35.17;23.15;;;;;;;;;;5055064;28;20389;-71
2022/09/02 05:51:29;;;;;;;43.97;23.40;;;;;;;;;;5055090;28;20500;-70
2022/09/02 05:53:56;;;;;;;34.92;22.08;;;;;;;;;;5055243;28;20532;-71
2022/09/02 05:56:23;;;;;;;33.15;21.40;;;;;;;;;;5054729;28;20056;-70
2022/09/02 05:58:49;;;;;;;31.50;21.88;;;;;;;;;;5035932;28;20137;-70
2022/09/02 06:01:16;;;;;;;40.50;25.02;;;;;;;;;;5054743;28;20025;-71
2022/09/02 06:03:42;;;;;;;30.60;20.85;;;;;;;;;;5054998;28;20427;-70
2022/09/02 06:06:08;;;;;;;34.97;21.95;;;;;;;;;;5036851;28;20436;-70
2022/09/02 06:08:35;;;;;;;37.67;22.10;;;;;;;;;;5054937;28;20021;-70
2022/09/02 06:11:02;;;;;;;39.65;23.98;;;;;;;;;;5054667;28;20025;-69
2022/09/02 06:13:29;;;;;;;38.85;24.17;;;;;;;;;;5054560;28;20021;-70
2022/09/02 06:15:56;;;;;;;36.83;24.13;;;;;;;;;;5054769;28;20052;-70
2022/09/02 06:18:22;;;;;;;36.42;23.17;;;;;;;;;;5036294;28;20557;-71
2022/09/02 06:20:49;;;;;;;33.83;22.42;;;;;;;;;;5054725;28;20021;-71
2022/09/02 06:23:15;;;;;;;33.53;22.45;;;;;;;;;;5054500;28;20024;-70
2022/09/02 06:25:43;;;;;;;34.78;22.60;;;;;;;;;;5054562;28;20033;-70
2022/09/02 06:28:10;;;;;;;33.38;21.42;;;;;;;;;;5054306;28;20028;-70
2022/09/02 06:30:37;;;;;;;30.77;21.73;;;;;;;;;;5054306;28;20064;-70
2022/09/02 06:33:03;;;;;;;43.03;23.52;;;;;;;;;;5054194;28;20025;-71
2022/09/02 06:35:33;;;;;;;34.78;22.58;;;;;;;;;;5036259;28;20119;-70
2022/09/02 06:37:59;;;;;;;38.63;23.95;;;;;;;;;;5054136;28;20488;-74
2022/09/02 06:40:26;;;;;;;36.75;22.73;;;;;;;;;;5054230;28;20086;-71
2022/09/02 06:42:52;;;;;;;35.88;22.98;;;;;;;;;;5054278;28;20017;-71
2022/09/02 06:45:19;;;;;;;36.50;23.15;;;;;;;;;;5054291;28;20017;-70
2022/09/02 06:47:45;;;;;;;37.50;22.63;;;;;;;;;;5054960;28;20049;-72
2022/09/02 06:50:11;;;;;;;33.10;22.02;;;;;;;;;;5054106;28;20035;-71
2022/09/02 06:52:37;;;;;;;30.77;20.45;;;;;;;;;;5054349;28;20116;-71
2022/09/02 06:55:03;;;;;;;31.05;21.08;;;;;;;;;;5054081;28;20029;-71
2022/09/02 06:57:29;;;;;;;29.48;20.27;;;;;;;;;;5053478;28;20049;-71
2022/09/02 06:59:55;;;;;;;31.63;21.02;;;;;;;;;;5053666;28;20063;-71
2022/09/02 07:02:21;;;;;;;31.55;20.92;;;;;;;;;;5053588;28;20017;-71
2022/09/02 07:07:34;;;;;;;29.63;20.02;;;;;;;;;;5053891;28;20117;-72
2022/09/02 07:10:00;;;;;;;30.05;20.67;;;;;;;;;;5053488;28;20040;-73
2022/09/02 07:12:26;;;;;;;28.65;19.80;;;;;;;;;;5053460;28;20020;-71
2022/09/02 07:14:53;;;;;;;32.60;20.23;;;;;;;;;;5053838;28;20029;-71
2022/09/02 07:17:21;;;;;;;27.73;18.15;;;;;;;;;;5051664;28;20394;-71
2022/09/02 07:19:48;;;;;;;27.77;18.60;;;;;;;;;;5051830;28;20029;-72
2022/09/02 07:22:14;;;;;;;31.13;20.90;;;;;;;;;;5053106;28;20025;-71
2022/09/02 07:24:40;;;;;;;31.60;20.88;;;;;;;;;;5053027;28;20087;-71
2022/09/02 07:27:06;;;;;;;33.13;21.50;;;;;;;;;;5053039;28;20025;-71
2022/09/02 07:29:33;;;;;;;34.42;22.48;;;;;;;;;;5053047;28;20059;-72
2022/09/02 07:31:59;;;;;;;33.17;22.75;;;;;;;;;;5052671;28;20029;-71
2022/09/02 07:34:25;;;;;;;32.15;21.08;;;;;;;;;;5053500;28;20075;-72
2022/09/02 07:36:51;;;;;;;29.00;20.55;;;;;;;;;;5053772;28;20027;-71
2022/09/02 07:39:18;;;;;;;33.47;22.05;;;;;;;;;;5053162;28;20033;-74
2022/09/02 07:41:45;;;;;;;30.73;20.92;;;;;;;;;;5053135;28;20025;-72
2022/09/02 07:44:12;;;;;;;31.88;20.90;;;;;;;;;;5053101;28;20465;-71
2022/09/02 07:46:38;;;;;;;30.38;20.23;;;;;;;;;;5035270;28;20017;-71
2022/09/02 07:49:06;;;;;;;33.00;22.38;;;;;;;;;;5054123;28;20068;-72
2022/09/02 07:51:33;;;;;;;33.08;21.30;;;;;;;;;;5035177;28;20027;-72
2022/09/02 07:54:00;;;;;;;32.35;20.25;;;;;;;;;;5053040;28;20466;-72
2022/09/02 07:56:26;;;;;;;34.15;21.15;;;;;;;;;;5052816;28;20176;-72
2022/09/02 07:58:52;;;;;;;31.77;21.25;;;;;;;;;;5052906;28;20063;-72
2022/09/02 08:01:19;;;;;;;31.38;20.73;;;;;;;;;;5053040;28;20028;-71
2022/09/02 08:03:45;;;;;;;32.90;21.67;;;;;;;;;;5035051;28;20108;-72
2022/09/02 08:06:12;;;;;;;33.47;20.73;;;;;;;;;;5052923;28;20017;-70
2022/09/02 08:08:39;;;;;;;31.67;20.55;;;;;;;;;;5052877;28;20033;-70
2022/09/02 08:11:06;;;;;;;30.17;20.92;;;;;;;;;;5053143;28;20505;-70
2022/09/02 08:13:32;;;;;;;31.60;20.38;;;;;;;;;;5052859;28;20075;-72
2022/09/02 08:15:59;;;;;;;33.55;21.58;;;;;;;;;;5052843;28;20478;-71
2022/09/02 08:18:25;;;;;;;31.77;20.55;;;;;;;;;;5052749;28;20035;-70
2022/09/02 08:20:51;;;;;;;35.47;20.83;;;;;;;;;;5053696;28;20021;-70
2022/09/02 08:23:17;;;;;;;34.90;21.40;;;;;;;;;;5056699;28;20017;-71
2022/09/02 08:25:44;;;;;;;34.95;21.33;;;;;;;;;;5038721;28;20013;-69
2022/09/02 08:28:10;;;;;;;30.23;20.77;;;;;;;;;;5056833;28;20389;-70
2022/09/02 08:30:36;;;;;;;30.10;20.27;;;;;;;;;;5056612;28;20025;-77
2022/09/02 08:33:02;;;;;;;31.45;19.98;;;;;;;;;;5056506;28;20501;-70
2022/09/02 08:35:28;;;;;;;26.98;18.48;;;;;;;;;;5056514;28;20029;-71
2022/09/02 08:37:54;;;;;;;28.23;19.27;;;;;;;;;;5056944;28;20036;-70
2022/09/02 08:40:22;;;;;;;34.20;18.77;;;;;;;;;;5056236;28;20025;-70
2022/09/02 08:42:52;;;;;;;24.15;17.48;;;;;;;;;;5056858;28;20374;-71
2022/09/02 08:45:18;;;;;;;29.70;18.17;;;;;;;;;;5056288;28;20020;-71
2022/09/02 08:47:47;;;;;;;24.40;16.77;;;;;;;;;;5038749;28;20025;-71
2022/09/02 08:50:17;;;;;;;27.33;18.05;;;;;;;;;;5056466;28;20029;-71
2022/09/02 08:52:46;;;;;;;20.27;14.00;;;;;;;;;;5056418;28;20370;-72
2022/09/02 08:55:16;;;;;;;21.98;15.65;;;;;;;;;;5056382;28;20032;-72
2022/09/02 08:57:43;;;;;;;21.23;15.67;;;;;;;;;;5069987;28;20055;-72
2022/09/02 09:00:10;;;;;;;25.08;17.20;;;;;;;;;;5075932;28;20297;-70
2022/09/02 09:02:46;;;;;;;24.23;17.85;;;;;;;;;;5076420;28;20021;-71
2022/09/02 09:05:22;;;;;;;24.00;16.83;;;;;;;;;;5076462;28;20021;-72
2022/09/02 09:08:14;;;;;;;21.77;14.23;;;;;;;;;;5075883;28;20435;-72
2022/09/02 09:10:40;;;;;;;21.80;14.75;;;;;;;;;;5045541;28;20040;-72
2022/09/02 09:13:32;;;;;;;21.80;14.73;;;;;;;;;;5076026;28;20029;-71
2022/09/02 09:16:03;;;;;;;20.13;13.90;;;;;;;;;;5075977;28;20111;-71
2022/09/02 09:18:39;;;;;;;21.15;13.10;;;;;;;;;;5075622;28;20479;-72
2022/09/02 09:21:09;;;;;;;22.75;14.05;;;;;;;;;;5076001;28;20034;-70
2022/09/02 09:23:35;;;;;;;;;;;;;;;;;;5076724;28;20124;-71
2022/09/02 09:26:27;;;;;;;23.13;15.27;;;;;;;;;;5075560;28;20383;-71
2022/09/02 09:28:55;;;;;;;24.70;15.57;;;;;;;;;;5072014;28;20493;-70
2022/09/02 09:31:23;;;;;;;21.48;14.93;;;;;;;;;;5074032;28;20063;-71
2022/09/02 09:33:55;;;;;;;20.40;14.38;;;;;;;;;;5075498;28;20020;-70
2022/09/02 09:36:41;;;;;;;20.88;14.40;;;;;;;;;;5075405;28;20029;-72
2022/09/02 09:39:16;;;;;;;24.05;14.48;;;;;;;;;;5075626;28;20028;-72
2022/09/02 09:41:42;;;;;;;19.45;13.70;;;;;;;;;;5075245;28;20063;-72
2022/09/02 09:44:08;;;;;;;20.48;15.05;;;;;;;;;;5075504;28;20461;-71
2022/09/02 09:46:34;;;;;;;22.63;14.88;;;;;;;;;;5073898;28;20077;-70
2022/09/02 09:49:00;;;;;;;20.05;13.88;;;;;;;;;;5075858;28;20028;-71
2022/09/02 09:51:26;;;;;;;19.70;13.48;;;;;;;;;;5075621;28;20107;-71
2022/09/02 09:53:52;;;;;;;18.65;12.60;;;;;;;;;;5074973;28;20025;-72
2022/09/02 09:56:23;;;;;;;15.13;11.38;;;;;;;;;;5068601;28;20049;-70
2022/09/02 09:58:50;;;;;;;19.33;12.32;;;;;;;;;;5054824;28;20029;-69
2022/09/02 10:01:20;;;;;;;16.85;12.15;;;;;;;;;;5054764;28;20075;-72
2022/09/02 10:03:55;;;;;;;18.38;13.02;;;;;;;;;;5055400;28;20400;-70
2022/09/02 10:06:25;;;;;;;20.40;12.90;;;;;;;;;;5055010;28;20074;-70
2022/09/02 10:08:55;;;;;;;16.60;11.77;;;;;;;;;;5054707;28;20504;-71
2022/09/02 10:11:23;;;;;;;17.38;10.52;;;;;;;;;;5054610;28;20524;-72
2022/09/02 10:13:49;;;;;;;20.25;15.27;;;;;;;;;;5054610;28;20080;-71
2022/09/02 10:16:21;;;;;;;15.55;10.70;;;;;;;;;;5054813;28;20504;-72
2022/09/02 10:18:55;;;;;;;15.20;10.60;;;;;;;;;;5054731;28;20029;-72
2022/09/02 10:21:30;;;;;;;15.30;10.10;;;;;;;;;;5054703;28;20022;-70
2022/09/02 10:24:15;;;;;;;16.13;10.13;;;;;;;;;;5054961;28;20021;-69
2022/09/02 10:26:46;;;;;;;16.20;10.38;;;;;;;;;;5054608;28;20021;-71
2022/09/02 10:29:31;;;;;;;14.48;9.98;;;;;;;;;;5054933;28;20056;-73
2022/09/02 10:32:00;;;;;;;14.48;9.20;;;;;;;;;;5036359;28;20397;-70
2022/09/02 10:34:25;;;;;;;13.15;8.93;;;;;;;;;;5054298;28;20478;-71
2022/09/02 10:37:01;;;;;;;10.50;7.22;;;;;;;;;;5054215;28;20025;-72
2022/09/02 10:39:27;;;;;;;9.35;6.10;;;;;;;;;;5054566;28;20029;-71
2022/09/02 10:41:55;;;;;;;10.20;6.57;;;;;;;;;;5054701;28;20101;-72
2022/09/02 10:44:32;;;;;;;11.43;7.60;;;;;;;;;;5053736;28;20029;-71
2022/09/02 10:47:02;;;;;;;10.27;6.47;;;;;;;;;;5054253;28;20063;-71
2022/09/02 10:49:35;;;;;;;9.80;7.03;;;;;;;;;;5054512;28;20029;-70
2022/09/02 10:52:19;;;;;;;12.52;7.40;;;;;;;;;;5053980;28;20029;-71
2022/09/02 10:55:02;;;;;;;12.43;7.80;;;;;;;;;;5053823;28;20036;-70
2022/09/02 10:57:30;;;;;;;10.63;6.90;;;;;;;;;;5053708;28;20124;-72
2022/09/02 11:00:05;;;;;;;9.40;5.97;;;;;;;;;;5053700;28;20036;-72
2022/09/02 11:02:37;;;;;;;10.20;5.53;;;;;;;;;;5035837;28;20021;-71
2022/09/02 11:05:09;;;;;;;5.82;3.25;;;;;;;;;;5035437;28;20055;-71
2022/09/02 11:07:55;;;;;;;6.05;3.78;;;;;;;;;;5054208;28;20032;-72
2022/09/02 11:10:21;;;;;;;5.82;3.85;;;;;;;;;;5053486;28;20417;-70
2022/09/02 11:12:50;;;;;;;6.20;3.83;;;;;;;;;;5053607;28;20032;-72
2022/09/02 11:15:23;;;;;;;5.75;3.78;;;;;;;;;;5053563;28;20029;-71
2022/09/02 11:18:03;;;;;;;5.95;3.45;;;;;;;;;;5053823;28;20025;-71
2022/09/02 11:20:41;;;;;;;3.10;2.30;;;;;;;;;;5053773;28;20450;-70
2022/09/02 11:23:07;;;;;;;4.78;2.60;;;;;;;;;;5053676;28;20017;-73
2022/09/02 11:25:42;;;;;;;2.45;1.92;;;;;;;;;;5053394;28;20044;-70
2022/09/02 11:28:26;;;;;;;3.85;2.10;;;;;;;;;;5035495;28;20017;-73
2022/09/02 11:31:05;;;;;;;5.35;2.40;;;;;;;;;;5053587;28;20587;-70
2022/09/02 11:33:42;;;;;;;2.83;2.38;;;;;;;;;;5053847;28;20473;-72
2022/09/02 11:36:09;;;;;;;4.03;2.60;;;;;;;;;;5053527;28;20028;-72
2022/09/02 11:38:40;;;;;;;3.97;2.53;;;;;;;;;;5053133;28;20029;-71
2022/09/02 11:41:06;;;;;;;5.88;2.90;;;;;;;;;;5053508;28;20440;-71
2022/09/02 11:43:32;;;;;;;6.40;2.97;;;;;;;;;;5053136;28;20021;-72
2022/09/02 11:45:58;;;;;;;4.88;3.30;;;;;;;;;;5053421;28;20027;-71
2022/09/02 11:48:29;;;;;;;4.40;2.90;;;;;;;;;;5053655;28;20025;-72
2022/09/02 11:50:58;;;;;;;4.38;2.83;;;;;;;;;;5053104;28;20083;-73
2022/09/02 11:53:27;;;;;;;6.25;3.60;;;;;;;;;;5053661;28;20025;-69
2022/09/02 11:55:59;;;;;;;4.90;2.80;;;;;;;;;;5054062;28;20432;-72
2022/09/02 11:58:40;;;;;;;3.08;2.33;;;;;;;;;;5057191;28;20025;-70
2022/09/02 12:01:17;;;;;;;6.30;2.88;;;;;;;;;;5057265;28;20061;-71
2022/09/02 12:03:53;;;;;;;3.67;2.80;;;;;;;;;;5057676;28;20048;-71
2022/09/02 12:06:20;;;;;;;3.95;2.35;;;;;;;;;;5057356;28;20029;-70
2022/09/02 12:08:47;;;;;;;2.83;1.60;;;;;;;;;;5057041;28;20025;-70
2022/09/02 12:11:31;;;;;;;4.65;1.90;;;;;;;;;;5056977;28;20080;-71
2022/09/02 12:13:58;;;;;;;2.47;1.90;;;;;;;;;;5057196;28;20013;-72
2022/09/02 12:16:24;;;;;;;2.47;1.63;;;;;;;;;;5038988;28;20024;-70
2022/09/02 12:18:53;;;;;;;7.72;4.78;;;;;;;;;;5038922;28;20581;-71
2022/09/02 12:21:20;;;;;;;10.73;5.38;;;;;;;;;;5056789;28;20051;-71
2022/09/02 12:23:52;;;;;;;7.40;4.65;;;;;;;;;;5057034;28;20017;-71
2022/09/02 12:26:29;;;;;;;11.75;6.68;;;;;;;;;;5057209;28;20549;-72
2022/09/02 12:29:13;;;;;;;13.25;5.40;;;;;;;;;;5056636;28;20032;-71
2022/09/02 12:31:41;;;;;;;8.43;5.72;;;;;;;;;;5056890;28;20029;-71
2022/09/02 12:34:19;;;;;;;8.57;5.43;;;;;;;;;;5056527;28;20501;-70
2022/09/02 12:36:56;;;;;;;10.52;6.10;;;;;;;;;;5056499;28;20029;-70
2022/09/02 12:39:26;;;;;;;7.72;5.13;;;;;;;;;;5056581;28;20032;-71
2022/09/02 12:41:52;;;;;;;;;;;;;;;;;;5038927;28;20031;-72
2022/09/02 12:44:22;;;;;;;6.07;3.42;;;;;;;;;;5056285;28;20038;-71
2022/09/02 12:46:53;;;;;;;29.73;7.18;;;;;;;;;;5056634;28;20021;-70
2022/09/02 12:49:38;;;;;;;14.73;5.65;;;;;;;;;;5057109;28;20489;-71
2022/09/02 12:52:11;;;;;;;16.05;6.47;;;;;;;;;;5056227;28;20512;-71
2022/09/02 12:54:48;;;;;;;11.45;5.72;;;;;;;;;;5056171;28;20025;-70
2022/09/02 12:57:15;;;;;;;4.90;3.42;;;;;;;;;;5055960;28;20053;-72
2022/09/02 12:59:42;;;;;;;13.40;5.30;;;;;;;;;;5056251;28;20029;-72
2022/09/02 13:02:15;;;;;;;7.88;4.40;;;;;;;;;;5055969;28;20021;-71
2022/09/02 13:05:00;;;;;;;8.48;4.53;;;;;;;;;;5056231;28;20021;-70
2022/09/02 13:07:29;;;;;;;7.18;4.25;;;;;;;;;;5037432;28;20619;-72
2022/09/02 13:10:11;;;;;;;5.35;3.40;;;;;;;;;;5055898;28;20029;-71
2022/09/02 13:12:46;;;;;;;5.18;3.42;;;;;;;;;;5056364;28;20021;-72
2022/09/02 13:15:38;;;;;;;5.45;3.58;;;;;;;;;;5037896;28;20033;-70
2022/09/02 13:18:10;;;;;;;4.28;2.75;;;;;;;;;;5017953;28;20037;-71
2022/09/02 13:20:40;;;;;;;4.53;2.95;;;;;;;;;;5055608;28;20489;-70
2022/09/02 13:23:29;;;;;;;7.05;3.10;;;;;;;;;;5037483;28;20040;-71
2022/09/02 13:25:55;;;;;;;4.78;2.55;;;;;;;;;;5055872;28;20424;-71
2022/09/02 13:28:37;;;;;;;4.85;3.25;;;;;;;;;;5055583;28;20564;-70
2022/09/02 13:31:12;;;;;;;4.90;3.30;;;;;;;;;;5055745;28;20427;-70
2022/09/02 13:33:38;;;;;;;8.20;4.10;;;;;;;;;;5037541;28;20489;-71
2022/09/02 13:36:04;;;;;;;8.57;4.10;;;;;;;;;;5037521;28;20390;-72
2022/09/02 13:38:31;;;;;;;7.30;4.72;;;;;;;;;;5055313;28;20505;-71
2022/09/02 13:40:58;;;;;;;9.38;4.60;;;;;;;;;;5055515;28;20025;-71
2022/09/02 13:43:25;;;;;;;9.65;5.50;;;;;;;;;;5055476;28;20020;-70
2022/09/02 13:45:52;;;;;;;8.32;5.35;;;;;;;;;;5037265;28;20052;-72
2022/09/02 13:48:26;;;;;;;10.98;6.18;;;;;;;;;;5055698;28;20017;-72
2022/09/02 13:50:53;;;;;;;9.27;6.53;;;;;;;;;;5055148;28;20025;-70
2022/09/02 13:53:31;;;;;;;11.57;6.80;;;;;;;;;;5055093;28;20068;-70
2022/09/02 13:55:58;;;;;;;10.15;6.43;;;;;;;;;;5054845;28;20391;-71
2022/09/02 13:58:31;;;;;;;10.63;6.05;;;;;;;;;;5055279;28;20389;-72
2022/09/02 14:01:09;;;;;;;11.02;5.57;;;;;;;;;;5055065;28;20147;-70
2022/09/02 14:03:36;;;;;;;8.45;5.53;;;;;;;;;;5055213;28;20078;-72
2022/09/02 14:06:02;;;;;;;9.48;5.00;;;;;;;;;;5054792;28;20424;-70
2022/09/02 14:08:28;;;;;;;8.32;5.15;;;;;;;;;;5055040;28;20110;-70
2022/09/02 14:10:55;;;;;;;6.53;4.20;;;;;;;;;;5054746;28;20021;-71
2022/09/02 14:13:22;;;;;;;7.75;4.93;;;;;;;;;;5054880;28;20032;-71
2022/09/02 14:15:48;;;;;;;8.52;4.57;;;;;;;;;;5055163;28;20025;-72
2022/09/02 14:18:18;;;;;;;8.82;5.05;;;;;;;;;;5053778;28;20397;-70
2022/09/02 14:21:01;;;;;;;8.30;4.85;;;;;;;;;;5054717;28;20108;-72
2022/09/02 14:23:28;;;;;;;9.25;4.85;;;;;;;;;;5054471;28;20036;-70
2022/09/02 14:25:57;;;;;;;9.90;5.43;;;;;;;;;;5054691;28;20032;-71
2022/09/02 14:28:24;;;;;;;6.75;4.22;;;;;;;;;;5054624;28;20057;-69
2022/09/02 14:31:08;;;;;;;8.55;4.68;;;;;;;;;;5054636;28;20036;-71
2022/09/02 14:33:44;;;;;;;6.00;4.22;;;;;;;;;;5054214;28;20032;-69
2022/09/02 14:36:18;;;;;;;6.55;3.60;;;;;;;;;;5036337;28;20029;-72
2022/09/02 14:38:45;;;;;;;5.70;3.65;;;;;;;;;;5054033;28;20021;-72
2022/09/02 14:41:12;;;;;;;5.70;3.50;;;;;;;;;;5054235;28;20051;-71